sensor_id;sensor_type;location;lat;lon;timestamp;P1;durP1;ratioP1;P2;durP2;ratioP2
40755;SDS011;26461;45.630;9.418;2022-10-16T00:01:35;18.98;;;13.40;;
40755;SDS011;26461;45.630;9.418;2022-10-16T00:04:45;22.90;;;16.33;;
40755;SDS011;26461;45.630;9.418;2022-10-16T00:07:55;28.95;;;14.48;;
40755;SDS011;26461;45.630;9.418;2022-10-16T00:11:10;24.48;;;16.65;;
40755;SDS011;26461;45.630;9.418;2022-10-16T00:14:28;24.10;;;17.15;;
40755;SDS011;26461;45.630;9.418;2022-10-16T00:17:38;25.02;;;16.60;;
40755;SDS011;26461;45.630;9.418;2022-10-16T00:20:48;20.73;;;14.80;;
40755;SDS011;26461;45.630;9.418;2022-10-16T00:24:17;22.98;;;14.13;;
40755;SDS011;26461;45.630;9.418;2022-10-16T00:27:27;18.45;;;15.55;;
40755;SDS011;26461;45.630;9.418;2022-10-16T00:30:37;22.42;;;15.02;;
40755;SDS011;26461;45.630;9.418;2022-10-16T00:33:48;27.02;;;17.73;;
40755;SDS011;26461;45.630;9.418;2022-10-16T00:36:58;21.80;;;15.55;;
40755;SDS011;26461;45.630;9.418;2022-10-16T00:40:08;28.40;;;13.98;;
40755;SDS011;26461;45.630;9.418;2022-10-16T00:43:38;19.00;;;14.90;;
40755;SDS011;26461;45.630;9.418;2022-10-16T00:47:03;27.80;;;15.45;;
40755;SDS011;26461;45.630;9.418;2022-10-16T00:53:32;18.88;;;13.70;;
40755;SDS011;26461;45.630;9.418;2022-10-16T00:56:42;18.02;;;11.63;;
40755;SDS011;26461;45.630;9.418;2022-10-16T00:59:53;32.42;;;16.05;;
40755;SDS011;26461;45.630;9.418;2022-10-16T01:03:21;14.25;;;13.55;;
40755;SDS011;26461;45.630;9.418;2022-10-16T01:06:52;29.88;;;19.00;;
40755;SDS011;26461;45.630;9.418;2022-10-16T01:13:46;22.55;;;12.02;;
40755;SDS011;26461;45.630;9.418;2022-10-16T01:17:04;21.05;;;14.85;;
40755;SDS011;26461;45.630;9.418;2022-10-16T01:20:33;21.15;;;13.70;;
40755;SDS011;26461;45.630;9.418;2022-10-16T01:23:51;22.02;;;13.45;;
40755;SDS011;26461;45.630;9.418;2022-10-16T01:30:42;20.27;;;14.90;;
40755;SDS011;26461;45.630;9.418;2022-10-16T01:34:02;21.33;;;16.63;;
40755;SDS011;26461;45.630;9.418;2022-10-16T01:37:16;18.80;;;13.45;;
40755;SDS011;26461;45.630;9.418;2022-10-16T01:40:35;22.83;;;12.02;;
40755;SDS011;26461;45.630;9.418;2022-10-16T01:43:49;21.20;;;14.40;;
40755;SDS011;26461;45.630;9.418;2022-10-16T01:47:13;24.25;;;14.93;;
40755;SDS011;26461;45.630;9.418;2022-10-16T01:50:23;17.08;;;11.65;;
40755;SDS011;26461;45.630;9.418;2022-10-16T01:53:36;28.85;;;14.48;;
40755;SDS011;26461;45.630;9.418;2022-10-16T01:56:47;22.67;;;13.20;;
40755;SDS011;26461;45.630;9.418;2022-10-16T02:00:00;21.52;;;12.00;;
40755;SDS011;26461;45.630;9.418;2022-10-16T02:03:18;22.60;;;13.70;;
40755;SDS011;26461;45.630;9.418;2022-10-16T02:06:29;19.38;;;10.65;;
40755;SDS011;26461;45.630;9.418;2022-10-16T02:09:40;23.92;;;12.07;;
40755;SDS011;26461;45.630;9.418;2022-10-16T02:12:58;30.83;;;14.25;;
40755;SDS011;26461;45.630;9.418;2022-10-16T02:16:15;23.90;;;16.27;;
40755;SDS011;26461;45.630;9.418;2022-10-16T02:19:25;17.27;;;10.93;;
40755;SDS011;26461;45.630;9.418;2022-10-16T02:22:34;33.00;;;11.85;;
40755;SDS011;26461;45.630;9.418;2022-10-16T02:25:49;19.23;;;10.63;;
40755;SDS011;26461;45.630;9.418;2022-10-16T02:29:02;14.65;;;9.98;;
40755;SDS011;26461;45.630;9.418;2022-10-16T02:32:17;23.92;;;14.35;;
40755;SDS011;26461;45.630;9.418;2022-10-16T02:35:32;32.10;;;11.00;;
40755;SDS011;26461;45.630;9.418;2022-10-16T02:38:42;14.73;;;11.00;;
40755;SDS011;26461;45.630;9.418;2022-10-16T02:41:53;16.33;;;8.65;;
40755;SDS011;26461;45.630;9.418;2022-10-16T02:45:04;18.05;;;9.65;;
40755;SDS011;26461;45.630;9.418;2022-10-16T02:48:15;14.27;;;10.20;;
40755;SDS011;26461;45.630;9.418;2022-10-16T02:51:25;21.00;;;10.60;;
40755;SDS011;26461;45.630;9.418;2022-10-16T02:54:36;15.30;;;10.93;;
40755;SDS011;26461;45.630;9.418;2022-10-16T02:57:46;14.48;;;9.02;;
40755;SDS011;26461;45.630;9.418;2022-10-16T03:00:55;21.13;;;11.43;;
40755;SDS011;26461;45.630;9.418;2022-10-16T03:04:05;17.73;;;11.25;;
40755;SDS011;26461;45.630;9.418;2022-10-16T03:07:15;20.80;;;11.88;;
40755;SDS011;26461;45.630;9.418;2022-10-16T03:10:25;19.77;;;10.70;;
40755;SDS011;26461;45.630;9.418;2022-10-16T03:13:35;18.90;;;10.32;;
40755;SDS011;26461;45.630;9.418;2022-10-16T03:16:45;20.85;;;12.05;;
40755;SDS011;26461;45.630;9.418;2022-10-16T03:19:55;15.93;;;12.15;;
40755;SDS011;26461;45.630;9.418;2022-10-16T03:23:06;18.25;;;10.70;;
40755;SDS011;26461;45.630;9.418;2022-10-16T03:26:17;20.48;;;11.38;;
40755;SDS011;26461;45.630;9.418;2022-10-16T03:29:27;19.42;;;13.10;;
40755;SDS011;26461;45.630;9.418;2022-10-16T03:32:38;17.88;;;11.40;;
40755;SDS011;26461;45.630;9.418;2022-10-16T03:35:52;21.23;;;10.90;;
40755;SDS011;26461;45.630;9.418;2022-10-16T03:39:04;19.75;;;10.25;;
40755;SDS011;26461;45.630;9.418;2022-10-16T03:42:13;22.85;;;9.48;;
40755;SDS011;26461;45.630;9.418;2022-10-16T03:45:24;28.92;;;12.57;;
40755;SDS011;26461;45.630;9.418;2022-10-16T03:48:35;25.83;;;10.55;;
40755;SDS011;26461;45.630;9.418;2022-10-16T03:51:45;17.42;;;11.68;;
40755;SDS011;26461;45.630;9.418;2022-10-16T03:54:55;30.80;;;12.23;;
40755;SDS011;26461;45.630;9.418;2022-10-16T03:58:05;24.05;;;11.90;;
40755;SDS011;26461;45.630;9.418;2022-10-16T04:01:15;14.85;;;9.70;;
40755;SDS011;26461;45.630;9.418;2022-10-16T04:04:24;17.15;;;10.27;;
40755;SDS011;26461;45.630;9.418;2022-10-16T04:07:35;17.63;;;9.68;;
40755;SDS011;26461;45.630;9.418;2022-10-16T04:10:44;29.55;;;12.75;;
40755;SDS011;26461;45.630;9.418;2022-10-16T04:13:55;13.88;;;10.00;;
40755;SDS011;26461;45.630;9.418;2022-10-16T04:17:05;20.42;;;10.45;;
40755;SDS011;26461;45.630;9.418;2022-10-16T04:20:14;26.23;;;10.82;;
40755;SDS011;26461;45.630;9.418;2022-10-16T04:23:24;23.58;;;11.40;;
40755;SDS011;26461;45.630;9.418;2022-10-16T04:26:35;18.17;;;10.38;;
40755;SDS011;26461;45.630;9.418;2022-10-16T04:29:44;21.58;;;11.60;;
40755;SDS011;26461;45.630;9.418;2022-10-16T04:32:54;20.05;;;10.10;;
40755;SDS011;26461;45.630;9.418;2022-10-16T04:36:04;17.67;;;11.38;;
40755;SDS011;26461;45.630;9.418;2022-10-16T04:39:15;16.75;;;10.18;;
40755;SDS011;26461;45.630;9.418;2022-10-16T04:42:25;16.98;;;12.95;;
40755;SDS011;26461;45.630;9.418;2022-10-16T04:45:35;28.80;;;11.82;;
40755;SDS011;26461;45.630;9.418;2022-10-16T04:48:45;19.92;;;10.80;;
40755;SDS011;26461;45.630;9.418;2022-10-16T04:51:56;20.33;;;11.95;;
40755;SDS011;26461;45.630;9.418;2022-10-16T04:55:06;18.67;;;10.73;;
40755;SDS011;26461;45.630;9.418;2022-10-16T04:58:16;15.40;;;9.63;;
40755;SDS011;26461;45.630;9.418;2022-10-16T05:01:27;16.40;;;12.23;;
40755;SDS011;26461;45.630;9.418;2022-10-16T05:04:37;17.58;;;9.77;;
40755;SDS011;26461;45.630;9.418;2022-10-16T05:07:47;14.95;;;8.63;;
40755;SDS011;26461;45.630;9.418;2022-10-16T05:10:58;19.02;;;11.45;;
40755;SDS011;26461;45.630;9.418;2022-10-16T05:14:09;18.23;;;9.98;;
40755;SDS011;26461;45.630;9.418;2022-10-16T05:17:19;24.75;;;9.85;;
40755;SDS011;26461;45.630;9.418;2022-10-16T05:20:29;17.85;;;9.75;;
40755;SDS011;26461;45.630;9.418;2022-10-16T05:23:38;19.42;;;11.80;;
40755;SDS011;26461;45.630;9.418;2022-10-16T05:26:49;20.80;;;11.52;;
40755;SDS011;26461;45.630;9.418;2022-10-16T05:29:59;21.60;;;10.63;;
40755;SDS011;26461;45.630;9.418;2022-10-16T05:33:09;22.48;;;11.02;;
40755;SDS011;26461;45.630;9.418;2022-10-16T05:36:19;19.08;;;11.23;;
40755;SDS011;26461;45.630;9.418;2022-10-16T05:39:30;16.85;;;10.77;;
40755;SDS011;26461;45.630;9.418;2022-10-16T05:42:40;17.58;;;10.77;;
40755;SDS011;26461;45.630;9.418;2022-10-16T05:46:08;21.83;;;12.80;;
40755;SDS011;26461;45.630;9.418;2022-10-16T05:49:18;17.65;;;10.35;;
40755;SDS011;26461;45.630;9.418;2022-10-16T05:52:28;24.13;;;12.85;;
40755;SDS011;26461;45.630;9.418;2022-10-16T05:55:38;17.75;;;11.43;;
40755;SDS011;26461;45.630;9.418;2022-10-16T05:58:48;16.10;;;10.95;;
40755;SDS011;26461;45.630;9.418;2022-10-16T06:01:57;31.42;;;14.18;;
40755;SDS011;26461;45.630;9.418;2022-10-16T06:05:08;19.02;;;9.77;;
40755;SDS011;26461;45.630;9.418;2022-10-16T06:08:13;21.48;;;14.85;;
40755;SDS011;26461;45.630;9.418;2022-10-16T06:11:27;17.92;;;10.65;;
40755;SDS011;26461;45.630;9.418;2022-10-16T06:14:39;20.73;;;12.90;;
40755;SDS011;26461;45.630;9.418;2022-10-16T06:17:48;18.60;;;9.40;;
40755;SDS011;26461;45.630;9.418;2022-10-16T06:20:58;24.25;;;10.88;;
40755;SDS011;26461;45.630;9.418;2022-10-16T06:24:09;16.05;;;8.90;;
40755;SDS011;26461;45.630;9.418;2022-10-16T06:27:19;16.75;;;10.63;;
40755;SDS011;26461;45.630;9.418;2022-10-16T06:30:30;10.93;;;8.88;;
40755;SDS011;26461;45.630;9.418;2022-10-16T06:33:40;22.58;;;9.60;;
40755;SDS011;26461;45.630;9.418;2022-10-16T06:36:49;16.95;;;10.98;;
40755;SDS011;26461;45.630;9.418;2022-10-16T06:40:02;11.05;;;9.23;;
40755;SDS011;26461;45.630;9.418;2022-10-16T06:43:08;12.30;;;8.05;;
40755;SDS011;26461;45.630;9.418;2022-10-16T06:46:19;23.10;;;13.75;;
40755;SDS011;26461;45.630;9.418;2022-10-16T06:49:32;10.88;;;9.05;;
40755;SDS011;26461;45.630;9.418;2022-10-16T06:52:42;22.00;;;10.23;;
40755;SDS011;26461;45.630;9.418;2022-10-16T06:55:52;15.07;;;9.15;;
40755;SDS011;26461;45.630;9.418;2022-10-16T06:59:01;23.17;;;13.30;;
40755;SDS011;26461;45.630;9.418;2022-10-16T07:02:13;18.05;;;10.45;;
40755;SDS011;26461;45.630;9.418;2022-10-16T07:05:23;14.48;;;10.90;;
40755;SDS011;26461;45.630;9.418;2022-10-16T07:08:35;20.02;;;10.15;;
40755;SDS011;26461;45.630;9.418;2022-10-16T07:11:46;14.82;;;9.68;;
40755;SDS011;26461;45.630;9.418;2022-10-16T07:14:56;12.95;;;9.98;;
40755;SDS011;26461;45.630;9.418;2022-10-16T07:18:07;16.73;;;10.50;;
40755;SDS011;26461;45.630;9.418;2022-10-16T07:21:18;16.33;;;9.07;;
40755;SDS011;26461;45.630;9.418;2022-10-16T07:24:24;15.75;;;8.95;;
40755;SDS011;26461;45.630;9.418;2022-10-16T07:27:34;17.40;;;11.13;;
40755;SDS011;26461;45.630;9.418;2022-10-16T07:30:44;16.52;;;9.18;;
40755;SDS011;26461;45.630;9.418;2022-10-16T07:33:53;13.48;;;7.80;;
40755;SDS011;26461;45.630;9.418;2022-10-16T07:37:03;20.42;;;11.30;;
40755;SDS011;26461;45.630;9.418;2022-10-16T07:40:13;17.95;;;8.35;;
40755;SDS011;26461;45.630;9.418;2022-10-16T07:43:23;16.02;;;6.43;;
40755;SDS011;26461;45.630;9.418;2022-10-16T07:46:34;10.98;;;5.72;;
40755;SDS011;26461;45.630;9.418;2022-10-16T07:49:44;15.18;;;11.82;;
40755;SDS011;26461;45.630;9.418;2022-10-16T07:52:55;8.82;;;5.75;;
40755;SDS011;26461;45.630;9.418;2022-10-16T07:56:05;13.82;;;6.90;;
40755;SDS011;26461;45.630;9.418;2022-10-16T07:59:16;8.25;;;7.82;;
40755;SDS011;26461;45.630;9.418;2022-10-16T08:02:26;15.15;;;7.03;;
40755;SDS011;26461;45.630;9.418;2022-10-16T08:05:36;16.75;;;8.95;;
40755;SDS011;26461;45.630;9.418;2022-10-16T08:08:46;14.15;;;7.80;;
40755;SDS011;26461;45.630;9.418;2022-10-16T08:11:57;10.07;;;5.97;;
40755;SDS011;26461;45.630;9.418;2022-10-16T08:15:07;14.85;;;11.73;;
40755;SDS011;26461;45.630;9.418;2022-10-16T08:18:17;13.07;;;8.45;;
40755;SDS011;26461;45.630;9.418;2022-10-16T08:21:27;11.50;;;7.05;;
40755;SDS011;26461;45.630;9.418;2022-10-16T08:24:37;11.77;;;10.75;;
40755;SDS011;26461;45.630;9.418;2022-10-16T08:27:47;19.67;;;8.23;;
40755;SDS011;26461;45.630;9.418;2022-10-16T08:31:14;11.00;;;8.23;;
40755;SDS011;26461;45.630;9.418;2022-10-16T08:34:24;27.65;;;11.70;;
40755;SDS011;26461;45.630;9.418;2022-10-16T08:37:34;26.50;;;13.88;;
40755;SDS011;26461;45.630;9.418;2022-10-16T08:40:45;22.40;;;12.02;;
40755;SDS011;26461;45.630;9.418;2022-10-16T08:50:53;25.45;;;14.60;;
40755;SDS011;26461;45.630;9.418;2022-10-16T08:57:32;20.85;;;14.38;;
40755;SDS011;26461;45.630;9.418;2022-10-16T09:00:43;26.20;;;13.18;;
40755;SDS011;26461;45.630;9.418;2022-10-16T09:11:33;21.90;;;13.60;;
40755;SDS011;26461;45.630;9.418;2022-10-16T09:18:55;34.78;;;23.00;;
40755;SDS011;26461;45.630;9.418;2022-10-16T09:22:20;56.03;;;23.83;;
40755;SDS011;26461;45.630;9.418;2022-10-16T09:25:34;37.13;;;29.38;;
40755;SDS011;26461;45.630;9.418;2022-10-16T09:28:45;46.83;;;25.05;;
40755;SDS011;26461;45.630;9.418;2022-10-16T09:31:55;43.05;;;25.08;;
40755;SDS011;26461;45.630;9.418;2022-10-16T09:35:16;40.75;;;22.88;;
40755;SDS011;26461;45.630;9.418;2022-10-16T09:38:32;46.13;;;27.52;;
40755;SDS011;26461;45.630;9.418;2022-10-16T09:41:45;32.92;;;19.63;;
40755;SDS011;26461;45.630;9.418;2022-10-16T09:44:55;48.53;;;27.95;;
40755;SDS011;26461;45.630;9.418;2022-10-16T09:48:12;43.55;;;27.15;;
40755;SDS011;26461;45.630;9.418;2022-10-16T09:51:31;38.67;;;25.48;;
40755;SDS011;26461;45.630;9.418;2022-10-16T09:54:58;61.35;;;33.65;;
40755;SDS011;26461;45.630;9.418;2022-10-16T09:58:22;36.88;;;24.10;;
40755;SDS011;26461;45.630;9.418;2022-10-16T10:01:36;39.15;;;24.45;;
40755;SDS011;26461;45.630;9.418;2022-10-16T10:04:48;58.00;;;25.70;;
40755;SDS011;26461;45.630;9.418;2022-10-16T10:08:06;45.85;;;25.38;;
40755;SDS011;26461;45.630;9.418;2022-10-16T10:15:12;37.42;;;27.85;;
40755;SDS011;26461;45.630;9.418;2022-10-16T10:18:27;43.47;;;25.10;;
40755;SDS011;26461;45.630;9.418;2022-10-16T10:21:38;48.17;;;25.83;;
40755;SDS011;26461;45.630;9.418;2022-10-16T10:25:00;35.33;;;22.77;;
40755;SDS011;26461;45.630;9.418;2022-10-16T10:28:17;49.72;;;30.00;;
40755;SDS011;26461;45.630;9.418;2022-10-16T10:31:30;48.55;;;27.45;;
40755;SDS011;26461;45.630;9.418;2022-10-16T10:41:51;47.78;;;31.55;;
40755;SDS011;26461;45.630;9.418;2022-10-16T10:55:03;56.50;;;31.25;;
40755;SDS011;26461;45.630;9.418;2022-10-16T10:58:35;47.28;;;27.02;;
40755;SDS011;26461;45.630;9.418;2022-10-16T11:01:53;71.18;;;39.13;;
40755;SDS011;26461;45.630;9.418;2022-10-16T11:08:53;66.60;;;33.83;;
40755;SDS011;26461;45.630;9.418;2022-10-16T11:12:15;46.33;;;25.45;;
40755;SDS011;26461;45.630;9.418;2022-10-16T11:15:30;50.15;;;29.42;;
40755;SDS011;26461;45.630;9.418;2022-10-16T11:22:07;63.75;;;31.98;;
40755;SDS011;26461;45.630;9.418;2022-10-16T11:25:30;42.40;;;32.00;;
40755;SDS011;26461;45.630;9.418;2022-10-16T11:28:53;38.97;;;25.38;;
40755;SDS011;26461;45.630;9.418;2022-10-16T11:32:06;53.83;;;32.35;;
40755;SDS011;26461;45.630;9.418;2022-10-16T11:35:28;53.58;;;33.97;;
40755;SDS011;26461;45.630;9.418;2022-10-16T11:42:08;47.33;;;29.83;;
40755;SDS011;26461;45.630;9.418;2022-10-16T11:45:39;55.88;;;28.98;;
40755;SDS011;26461;45.630;9.418;2022-10-16T11:49:09;63.72;;;34.50;;
40755;SDS011;26461;45.630;9.418;2022-10-16T11:52:33;66.68;;;36.65;;
40755;SDS011;26461;45.630;9.418;2022-10-16T11:55:45;61.70;;;32.72;;
40755;SDS011;26461;45.630;9.418;2022-10-16T12:02:28;78.28;;;35.58;;
40755;SDS011;26461;45.630;9.418;2022-10-16T12:09:30;47.47;;;34.45;;
40755;SDS011;26461;45.630;9.418;2022-10-16T12:12:41;59.53;;;35.35;;
40755;SDS011;26461;45.630;9.418;2022-10-16T12:19:25;41.58;;;25.48;;
40755;SDS011;26461;45.630;9.418;2022-10-16T12:23:04;37.80;;;29.05;;
40755;SDS011;26461;45.630;9.418;2022-10-16T12:26:26;58.50;;;34.13;;
40755;SDS011;26461;45.630;9.418;2022-10-16T12:29:40;55.70;;;34.08;;
40755;SDS011;26461;45.630;9.418;2022-10-16T12:32:56;48.28;;;31.45;;
40755;SDS011;26461;45.630;9.418;2022-10-16T12:36:14;45.78;;;30.65;;
40755;SDS011;26461;45.630;9.418;2022-10-16T12:39:36;57.15;;;36.28;;
40755;SDS011;26461;45.630;9.418;2022-10-16T12:42:47;67.15;;;35.88;;
40755;SDS011;26461;45.630;9.418;2022-10-16T12:46:02;56.67;;;40.92;;
40755;SDS011;26461;45.630;9.418;2022-10-16T12:49:36;58.33;;;31.60;;
40755;SDS011;26461;45.630;9.418;2022-10-16T12:52:59;54.20;;;33.13;;
40755;SDS011;26461;45.630;9.418;2022-10-16T12:56:21;54.25;;;34.33;;
40755;SDS011;26461;45.630;9.418;2022-10-16T13:00:03;64.40;;;36.95;;
40755;SDS011;26461;45.630;9.418;2022-10-16T13:03:27;42.75;;;24.92;;
40755;SDS011;26461;45.630;9.418;2022-10-16T13:06:56;46.15;;;29.25;;
40755;SDS011;26461;45.630;9.418;2022-10-16T13:21:36;50.47;;;29.85;;
40755;SDS011;26461;45.630;9.418;2022-10-16T13:28:33;54.88;;;32.38;;
40755;SDS011;26461;45.630;9.418;2022-10-16T13:31:45;42.22;;;31.98;;
40755;SDS011;26461;45.630;9.418;2022-10-16T13:34:55;59.40;;;32.75;;
40755;SDS011;26461;45.630;9.418;2022-10-16T13:38:16;50.22;;;29.40;;
40755;SDS011;26461;45.630;9.418;2022-10-16T13:41:28;59.40;;;31.95;;
40755;SDS011;26461;45.630;9.418;2022-10-16T13:44:40;57.15;;;33.72;;
40755;SDS011;26461;45.630;9.418;2022-10-16T13:48:08;45.78;;;30.00;;
40755;SDS011;26461;45.630;9.418;2022-10-16T13:51:22;34.72;;;23.48;;
40755;SDS011;26461;45.630;9.418;2022-10-16T13:54:32;51.15;;;34.88;;
40755;SDS011;26461;45.630;9.418;2022-10-16T13:57:41;58.63;;;29.38;;
40755;SDS011;26461;45.630;9.418;2022-10-16T14:00:56;46.95;;;31.65;;
40755;SDS011;26461;45.630;9.418;2022-10-16T14:04:09;43.08;;;26.30;;
40755;SDS011;26461;45.630;9.418;2022-10-16T14:07:23;62.47;;;27.77;;
40755;SDS011;26461;45.630;9.418;2022-10-16T14:10:35;51.83;;;29.63;;
40755;SDS011;26461;45.630;9.418;2022-10-16T14:13:46;44.75;;;27.63;;
40755;SDS011;26461;45.630;9.418;2022-10-16T14:16:56;37.80;;;24.92;;
40755;SDS011;26461;45.630;9.418;2022-10-16T14:20:12;51.95;;;31.77;;
40755;SDS011;26461;45.630;9.418;2022-10-16T14:23:29;48.35;;;30.08;;
40755;SDS011;26461;45.630;9.418;2022-10-16T14:26:48;44.33;;;28.55;;
40755;SDS011;26461;45.630;9.418;2022-10-16T14:30:14;36.83;;;23.70;;
40755;SDS011;26461;45.630;9.418;2022-10-16T14:36:35;49.35;;;27.25;;
40755;SDS011;26461;45.630;9.418;2022-10-16T14:39:48;45.17;;;28.02;;
40755;SDS011;26461;45.630;9.418;2022-10-16T14:43:00;31.05;;;19.67;;
40755;SDS011;26461;45.630;9.418;2022-10-16T14:46:12;37.83;;;21.67;;
40755;SDS011;26461;45.630;9.418;2022-10-16T14:49:19;33.10;;;20.23;;
40755;SDS011;26461;45.630;9.418;2022-10-16T14:52:27;33.80;;;20.27;;
40755;SDS011;26461;45.630;9.418;2022-10-16T14:55:37;32.50;;;18.05;;
40755;SDS011;26461;45.630;9.418;2022-10-16T14:58:43;27.30;;;17.02;;
40755;SDS011;26461;45.630;9.418;2022-10-16T15:01:49;42.65;;;25.88;;
40755;SDS011;26461;45.630;9.418;2022-10-16T15:05:21;30.20;;;21.35;;
40755;SDS011;26461;45.630;9.418;2022-10-16T15:08:30;31.00;;;17.52;;
40755;SDS011;26461;45.630;9.418;2022-10-16T15:11:41;27.88;;;20.50;;
40755;SDS011;26461;45.630;9.418;2022-10-16T15:14:48;31.85;;;16.63;;
40755;SDS011;26461;45.630;9.418;2022-10-16T15:18:00;29.05;;;15.23;;
40755;SDS011;26461;45.630;9.418;2022-10-16T15:21:08;41.42;;;17.50;;
40755;SDS011;26461;45.630;9.418;2022-10-16T15:24:25;33.40;;;20.10;;
40755;SDS011;26461;45.630;9.418;2022-10-16T15:27:30;23.58;;;17.67;;
40755;SDS011;26461;45.630;9.418;2022-10-16T15:30:39;29.00;;;17.00;;
40755;SDS011;26461;45.630;9.418;2022-10-16T15:33:45;28.95;;;17.13;;
40755;SDS011;26461;45.630;9.418;2022-10-16T15:37:02;23.23;;;15.60;;
40755;SDS011;26461;45.630;9.418;2022-10-16T15:40:08;37.08;;;15.82;;
40755;SDS011;26461;45.630;9.418;2022-10-16T15:43:21;27.35;;;15.88;;
40755;SDS011;26461;45.630;9.418;2022-10-16T15:46:32;33.22;;;17.75;;
40755;SDS011;26461;45.630;9.418;2022-10-16T15:49:45;40.97;;;19.40;;
40755;SDS011;26461;45.630;9.418;2022-10-16T15:52:56;20.45;;;15.25;;
40755;SDS011;26461;45.630;9.418;2022-10-16T15:56:08;26.02;;;19.70;;
40755;SDS011;26461;45.630;9.418;2022-10-16T15:59:20;39.55;;;18.35;;
40755;SDS011;26461;45.630;9.418;2022-10-16T16:02:29;32.95;;;18.75;;
40755;SDS011;26461;45.630;9.418;2022-10-16T16:05:41;24.65;;;17.50;;
40755;SDS011;26461;45.630;9.418;2022-10-16T16:08:51;27.90;;;20.02;;
40755;SDS011;26461;45.630;9.418;2022-10-16T16:12:01;21.63;;;14.63;;
40755;SDS011;26461;45.630;9.418;2022-10-16T16:15:13;27.20;;;15.45;;
40755;SDS011;26461;45.630;9.418;2022-10-16T16:18:23;21.58;;;17.08;;
40755;SDS011;26461;45.630;9.418;2022-10-16T16:21:34;30.20;;;18.08;;
40755;SDS011;26461;45.630;9.418;2022-10-16T16:24:45;33.35;;;14.88;;
40755;SDS011;26461;45.630;9.418;2022-10-16T16:27:55;29.92;;;16.45;;
40755;SDS011;26461;45.630;9.418;2022-10-16T16:31:05;31.67;;;15.38;;
40755;SDS011;26461;45.630;9.418;2022-10-16T16:34:16;32.17;;;19.77;;
40755;SDS011;26461;45.630;9.418;2022-10-16T16:37:27;36.75;;;18.83;;
40755;SDS011;26461;45.630;9.418;2022-10-16T16:40:38;31.30;;;19.63;;
40755;SDS011;26461;45.630;9.418;2022-10-16T16:43:48;31.77;;;21.88;;
40755;SDS011;26461;45.630;9.418;2022-10-16T16:47:05;45.17;;;22.65;;
40755;SDS011;26461;45.630;9.418;2022-10-16T16:50:16;34.50;;;21.88;;
40755;SDS011;26461;45.630;9.418;2022-10-16T16:53:27;26.92;;;20.92;;
40755;SDS011;26461;45.630;9.418;2022-10-16T16:56:37;32.58;;;23.95;;
40755;SDS011;26461;45.630;9.418;2022-10-16T16:59:49;29.08;;;19.52;;
40755;SDS011;26461;45.630;9.418;2022-10-16T17:03:00;33.20;;;24.10;;
40755;SDS011;26461;45.630;9.418;2022-10-16T17:06:11;32.47;;;21.90;;
40755;SDS011;26461;45.630;9.418;2022-10-16T17:09:22;26.35;;;23.13;;
40755;SDS011;26461;45.630;9.418;2022-10-16T17:12:33;34.58;;;21.75;;
40755;SDS011;26461;45.630;9.418;2022-10-16T17:15:46;25.80;;;21.65;;
40755;SDS011;26461;45.630;9.418;2022-10-16T17:18:59;37.88;;;24.63;;
40755;SDS011;26461;45.630;9.418;2022-10-16T17:22:10;36.15;;;23.48;;
40755;SDS011;26461;45.630;9.418;2022-10-16T17:25:22;27.92;;;21.02;;
40755;SDS011;26461;45.630;9.418;2022-10-16T17:28:33;39.03;;;24.52;;
40755;SDS011;26461;45.630;9.418;2022-10-16T17:31:38;52.15;;;26.52;;
40755;SDS011;26461;45.630;9.418;2022-10-16T17:34:49;31.90;;;24.58;;
40755;SDS011;26461;45.630;9.418;2022-10-16T17:37:54;42.40;;;25.88;;
40755;SDS011;26461;45.630;9.418;2022-10-16T17:41:21;35.40;;;24.00;;
40755;SDS011;26461;45.630;9.418;2022-10-16T17:44:33;32.17;;;21.98;;
40755;SDS011;26461;45.630;9.418;2022-10-16T17:47:38;32.85;;;23.95;;
40755;SDS011;26461;45.630;9.418;2022-10-16T17:50:51;37.30;;;24.33;;
40755;SDS011;26461;45.630;9.418;2022-10-16T17:54:01;36.10;;;24.80;;
40755;SDS011;26461;45.630;9.418;2022-10-16T17:57:11;39.25;;;25.95;;
40755;SDS011;26461;45.630;9.418;2022-10-16T18:00:21;32.22;;;22.48;;
40755;SDS011;26461;45.630;9.418;2022-10-16T18:03:33;38.78;;;27.73;;
40755;SDS011;26461;45.630;9.418;2022-10-16T18:06:44;33.90;;;25.55;;
40755;SDS011;26461;45.630;9.418;2022-10-16T18:09:54;32.80;;;21.02;;
40755;SDS011;26461;45.630;9.418;2022-10-16T18:13:06;42.88;;;24.75;;
40755;SDS011;26461;45.630;9.418;2022-10-16T18:16:16;35.08;;;24.40;;
40755;SDS011;26461;45.630;9.418;2022-10-16T18:19:26;33.88;;;23.92;;
40755;SDS011;26461;45.630;9.418;2022-10-16T18:22:35;40.72;;;24.42;;
40755;SDS011;26461;45.630;9.418;2022-10-16T18:25:48;40.22;;;26.50;;
40755;SDS011;26461;45.630;9.418;2022-10-16T18:28:58;49.88;;;28.23;;
40755;SDS011;26461;45.630;9.418;2022-10-16T18:32:10;40.85;;;27.58;;
40755;SDS011;26461;45.630;9.418;2022-10-16T18:35:15;36.47;;;25.10;;
40755;SDS011;26461;45.630;9.418;2022-10-16T18:38:24;33.45;;;22.85;;
40755;SDS011;26461;45.630;9.418;2022-10-16T18:41:30;38.53;;;25.92;;
40755;SDS011;26461;45.630;9.418;2022-10-16T18:44:40;47.63;;;29.20;;
40755;SDS011;26461;45.630;9.418;2022-10-16T18:47:50;44.55;;;25.63;;
40755;SDS011;26461;45.630;9.418;2022-10-16T18:54:29;36.90;;;25.23;;
40755;SDS011;26461;45.630;9.418;2022-10-16T18:57:36;38.63;;;22.65;;
40755;SDS011;26461;45.630;9.418;2022-10-16T19:00:48;40.38;;;23.50;;
40755;SDS011;26461;45.630;9.418;2022-10-16T19:04:02;29.48;;;23.27;;
40755;SDS011;26461;45.630;9.418;2022-10-16T19:07:10;33.55;;;23.38;;
40755;SDS011;26461;45.630;9.418;2022-10-16T19:10:24;39.25;;;29.75;;
40755;SDS011;26461;45.630;9.418;2022-10-16T19:13:32;35.65;;;25.98;;
40755;SDS011;26461;45.630;9.418;2022-10-16T19:16:42;40.38;;;27.50;;
40755;SDS011;26461;45.630;9.418;2022-10-16T19:19:49;46.00;;;25.48;;
40755;SDS011;26461;45.630;9.418;2022-10-16T19:22:58;32.60;;;23.58;;
40755;SDS011;26461;45.630;9.418;2022-10-16T19:26:05;31.75;;;24.30;;
40755;SDS011;26461;45.630;9.418;2022-10-16T19:29:15;38.45;;;25.40;;
40755;SDS011;26461;45.630;9.418;2022-10-16T19:32:26;40.78;;;22.75;;
40755;SDS011;26461;45.630;9.418;2022-10-16T19:35:38;36.40;;;26.80;;
40755;SDS011;26461;45.630;9.418;2022-10-16T19:38:55;40.67;;;25.30;;
40755;SDS011;26461;45.630;9.418;2022-10-16T19:42:10;36.60;;;22.20;;
40755;SDS011;26461;45.630;9.418;2022-10-16T19:45:26;42.55;;;24.23;;
40755;SDS011;26461;45.630;9.418;2022-10-16T19:48:39;48.08;;;22.27;;
40755;SDS011;26461;45.630;9.418;2022-10-16T19:51:48;35.65;;;25.38;;
40755;SDS011;26461;45.630;9.418;2022-10-16T19:54:58;45.60;;;25.90;;
40755;SDS011;26461;45.630;9.418;2022-10-16T19:58:05;28.52;;;22.17;;
40755;SDS011;26461;45.630;9.418;2022-10-16T20:01:21;31.95;;;22.52;;
40755;SDS011;26461;45.630;9.418;2022-10-16T20:04:37;29.92;;;23.38;;
40755;SDS011;26461;45.630;9.418;2022-10-16T20:07:45;39.20;;;23.55;;
40755;SDS011;26461;45.630;9.418;2022-10-16T20:10:54;37.45;;;21.85;;
40755;SDS011;26461;45.630;9.418;2022-10-16T20:14:05;29.95;;;21.25;;
40755;SDS011;26461;45.630;9.418;2022-10-16T20:17:16;32.00;;;20.23;;
40755;SDS011;26461;45.630;9.418;2022-10-16T20:20:28;50.22;;;24.73;;
40755;SDS011;26461;45.630;9.418;2022-10-16T20:23:45;33.03;;;21.45;;
40755;SDS011;26461;45.630;9.418;2022-10-16T20:27:00;37.28;;;23.70;;